Terminal Aerodrome Forecast
Issued by NWS

Home | Current Version | Previous Version | Text Only | Print | Product List | Glossary On
Versions: 1 2 3 4 5 6 7 8 9 10 11 12 13 14 15 16 17
000
FTAK31 PAJN 302300
TAFAWG
TAF
PAWG 302323Z 0100/0124 19005KT P6SM -SHRA BKN040 OVC060
      TEMPO 0100/0102 19010G20KT
     FM010200 26004KT P6SM -SHRA BKN050 OVC070
     FM011100 VRB05KT P6SM VCSH BKN050 BKN070
     FM011700 32005KT P6SM SCT060
      AMD LTD TO CLD VIS AND WIND 0106/0115=

USA.gov is the U.S. government's official web portal to all federal, state and local government web resources and services.